createdAt,value
2023-03-04T00:04:48.169Z,13.15
2023-03-04T00:09:49.542Z,15.13
2023-03-04T00:14:51.361Z,13.13
2023-03-04T00:19:52.700Z,13.13
2023-03-04T00:24:54.065Z,15.02
2023-03-04T00:29:56.114Z,16.85
2023-03-04T00:34:57.481Z,15.68
2023-03-04T00:39:59.474Z,12.77
2023-03-04T00:45:00.818Z,14.32
2023-03-04T00:50:02.322Z,13.98
2023-03-04T00:55:04.610Z,16.92
2023-03-04T01:00:06.627Z,14.18
2023-03-04T01:05:08.734Z,14.48
2023-03-04T01:10:12.606Z,15.98
2023-03-04T01:15:14.422Z,17.77
2023-03-04T01:20:15.943Z,19.80
2023-03-04T01:25:17.381Z,20.60
2023-03-04T01:30:18.699Z,21.00
2023-03-04T01:35:20.033Z,22.42
2023-03-04T01:40:22.004Z,22.67
2023-03-04T01:45:23.944Z,19.38
2023-03-04T01:50:35.080Z,21.27
2023-03-04T01:55:36.937Z,21.98
2023-03-04T02:00:38.977Z,23.35
2023-03-04T02:05:46.321Z,23.52
2023-03-04T02:10:48.422Z,24.35
2023-03-04T02:15:49.835Z,25.73
2023-03-04T02:21:13.360Z,24.50
2023-03-04T02:26:20.104Z,21.27
2023-03-04T02:31:30.259Z,23.33
2023-03-04T02:36:33.371Z,24.45
2023-03-04T02:41:35.649Z,23.08
2023-03-04T02:46:37.076Z,26.65
2023-03-04T02:51:38.504Z,20.58
2023-03-04T02:56:45.352Z,22.88
2023-03-04T03:01:47.027Z,20.38
2023-03-04T03:06:48.873Z,21.98
2023-03-04T03:11:50.239Z,22.50
2023-03-04T03:16:51.570Z,20.98
2023-03-04T03:21:52.968Z,22.42
2023-03-04T03:26:54.292Z,22.17
2023-03-04T03:31:56.919Z,22.83
2023-03-04T03:36:58.475Z,22.42
2023-03-04T03:41:59.918Z,21.52
2023-03-04T03:47:01.423Z,22.30
2023-03-04T03:52:03.227Z,23.05
2023-03-04T03:57:04.564Z,21.17
2023-03-04T04:02:06.223Z,20.92
2023-03-04T04:07:07.645Z,20.48
2023-03-04T04:12:09.136Z,21.95
2023-03-04T04:17:11.651Z,18.65
2023-03-04T04:22:16.232Z,23.20
2023-03-04T04:27:17.570Z,22.23
2023-03-04T04:32:18.916Z,25.10
2023-03-04T04:37:20.772Z,21.83
2023-03-04T04:42:22.460Z,22.55
2023-03-04T04:47:23.906Z,23.63
2023-03-04T04:52:25.246Z,25.10
2023-03-04T04:57:26.637Z,24.00
2023-03-04T05:02:28.033Z,23.58
2023-03-04T05:07:29.396Z,21.80
2023-03-04T05:12:30.773Z,24.55
2023-03-04T05:17:32.124Z,21.70
2023-03-04T05:22:34.021Z,25.48
2023-03-04T05:27:37.683Z,22.15
2023-03-04T05:32:39.449Z,22.38
2023-03-04T05:37:40.818Z,22.30
2023-03-04T05:42:42.183Z,22.67
2023-03-04T05:47:43.679Z,20.80
2023-03-04T05:52:45.085Z,21.85
2023-03-04T05:57:46.797Z,25.55
2023-03-04T06:02:48.393Z,23.73
2023-03-04T06:07:52.175Z,25.40
2023-03-04T06:12:53.751Z,18.77
2023-03-04T06:17:55.101Z,24.80
2023-03-04T06:22:56.584Z,25.30
2023-03-04T06:27:57.961Z,22.70
2023-03-04T06:32:59.266Z,26.55
2023-03-04T06:38:00.641Z,22.98
2023-03-04T06:43:02.064Z,26.60
2023-03-04T06:48:03.590Z,25.27
2023-03-04T06:53:05.319Z,28.02
2023-03-04T06:58:06.743Z,22.30
2023-03-04T07:03:11.644Z,26.13
2023-03-04T07:08:13.291Z,26.27
2023-03-04T07:13:15.008Z,22.10
2023-03-04T07:18:16.316Z,22.17
2023-03-04T07:23:17.735Z,23.95
2023-03-04T07:28:19.360Z,22.65
2023-03-04T07:33:20.812Z,23.92
2023-03-04T07:38:22.204Z,21.25
2023-03-04T07:43:23.640Z,21.48
2023-03-04T07:48:25.130Z,19.45
2023-03-04T07:53:26.485Z,22.10
2023-03-04T07:58:27.822Z,21.27
2023-03-04T08:03:29.744Z,21.52
2023-03-04T08:08:31.773Z,26.45
2023-03-04T08:13:33.251Z,18.67
2023-03-04T08:18:34.816Z,24.38
2023-03-04T08:23:36.254Z,19.25
2023-03-04T08:28:38.340Z,21.33
2023-03-04T08:33:39.769Z,19.05
2023-03-04T08:38:41.503Z,22.02
2023-03-04T08:43:43.874Z,19.08
2023-03-04T08:48:45.616Z,19.98
2023-03-04T08:53:47.187Z,23.48
2023-03-04T08:58:48.563Z,17.08
2023-03-04T09:03:50.088Z,19.88
2023-03-04T09:08:51.525Z,19.58
2023-03-04T09:13:53.685Z,21.20
2023-03-04T09:18:55.216Z,15.93
2023-03-04T09:23:56.694Z,20.30
2023-03-04T09:29:00.750Z,19.15
2023-03-04T09:34:02.187Z,22.60
2023-03-04T09:39:04.887Z,19.05
2023-03-04T09:44:24.257Z,18.50
2023-03-04T09:49:26.515Z,16.63
2023-03-04T09:54:46.716Z,17.63
2023-03-04T10:00:13.088Z,17.30
2023-03-04T10:05:19.985Z,20.95
2023-03-04T10:10:33.848Z,16.85
2023-03-04T10:15:42.374Z,13.63
2023-03-04T10:20:56.809Z,23.27
2023-03-04T10:26:00.220Z,20.70
2023-03-04T10:31:27.239Z,15.90
2023-03-04T10:36:31.411Z,16.33
2023-03-04T10:41:33.242Z,13.73
2023-03-04T10:46:48.383Z,11.60
2023-03-04T10:57:14.780Z,8.93
2023-03-04T11:02:29.160Z,10.95
2023-03-04T11:07:34.096Z,12.47
2023-03-04T11:12:39.870Z,9.73
2023-03-04T11:17:46.989Z,10.82
2023-03-04T11:22:48.681Z,9.25
2023-03-04T11:27:55.810Z,9.48
2023-03-04T11:33:09.989Z,10.00
2023-03-04T11:38:24.648Z,10.30
2023-03-04T11:43:26.046Z,9.48
2023-03-04T11:48:45.404Z,7.63
2023-03-04T11:53:59.723Z,12.40
2023-03-04T11:59:15.371Z,9.50
2023-03-04T12:04:54.549Z,9.25
2023-03-04T12:10:22.509Z,11.32
2023-03-04T12:15:32.763Z,9.55
2023-03-04T12:20:46.281Z,9.77
2023-03-04T12:26:17.049Z,13.60
2023-03-04T12:31:35.841Z,6.13
2023-03-04T12:36:49.624Z,8.40
2023-03-04T12:41:57.214Z,7.70
2023-03-04T12:47:26.344Z,8.38
2023-03-04T12:53:03.776Z,7.05
2023-03-04T12:58:13.892Z,6.90
2023-03-04T13:03:26.597Z,6.22
2023-03-04T13:08:33.997Z,4.78
2023-03-04T13:13:37.175Z,5.68
2023-03-04T13:18:39.471Z,2.72
2023-03-04T13:23:41.009Z,3.65
2023-03-04T13:28:43.028Z,5.93
2023-03-04T13:33:48.657Z,4.30
2023-03-04T13:39:20.871Z,4.22
2023-03-04T13:44:34.411Z,4.70
2023-03-04T13:49:35.759Z,5.63
2023-03-04T13:54:37.466Z,7.50
2023-03-04T13:59:45.205Z,8.90
2023-03-04T14:04:57.401Z,8.60
2023-03-04T14:10:15.482Z,10.45
2023-03-04T14:15:21.634Z,5.93
2023-03-04T14:20:33.920Z,4.47
2023-03-04T14:25:36.980Z,7.90
2023-03-04T14:30:43.123Z,7.05
2023-03-04T14:35:48.128Z,6.85
2023-03-04T14:41:05.959Z,6.18
2023-03-04T14:46:13.067Z,6.65
2023-03-04T14:51:36.948Z,9.13
2023-03-04T14:56:43.888Z,8.32
2023-03-04T15:01:46.092Z,9.77
2023-03-04T15:06:50.250Z,11.48
2023-03-04T15:12:01.975Z,8.13
2023-03-04T15:17:03.478Z,9.48
2023-03-04T15:22:06.823Z,7.97
2023-03-04T15:27:12.315Z,6.25
2023-03-04T15:32:13.696Z,6.47
2023-03-04T15:37:27.298Z,5.65
2023-03-04T15:42:28.939Z,5.97
2023-03-04T15:47:30.389Z,5.22
2023-03-04T15:52:33.502Z,7.43
2023-03-04T15:57:34.935Z,5.07
2023-03-04T16:02:36.297Z,5.20
2023-03-04T16:07:40.431Z,4.90
2023-03-04T16:12:42.132Z,6.07
2023-03-04T16:17:44.026Z,3.47
2023-03-04T16:22:47.056Z,7.75
2023-03-04T16:27:52.304Z,6.13
2023-03-04T16:32:54.368Z,5.22
2023-03-04T16:37:56.821Z,5.05
2023-03-04T16:42:58.173Z,15.23
2023-03-04T16:47:59.576Z,11.95
2023-03-04T16:53:01.008Z,6.15
2023-03-04T16:58:02.373Z,11.20
2023-03-04T17:03:04.213Z,8.50
2023-03-04T17:08:05.786Z,9.10
2023-03-04T17:13:09.067Z,8.13
2023-03-04T17:18:10.507Z,10.70
2023-03-04T17:23:11.914Z,9.25
2023-03-04T17:28:13.355Z,9.15
2023-03-04T17:33:14.710Z,10.40
2023-03-04T17:38:16.538Z,9.45
2023-03-04T17:43:17.866Z,10.73
2023-03-04T17:48:19.322Z,12.77
2023-03-04T17:53:20.788Z,14.85
2023-03-04T17:58:23.199Z,16.67
2023-03-04T18:03:24.542Z,19.13
2023-03-04T18:08:26.015Z,11.43
2023-03-04T18:13:27.388Z,12.00
2023-03-04T18:18:28.947Z,9.70
2023-03-04T18:23:30.878Z,10.48
2023-03-04T18:28:32.418Z,12.38
2023-03-04T18:33:34.446Z,11.30
2023-03-04T18:38:35.797Z,9.35
2023-03-04T18:43:37.195Z,10.57
2023-03-04T18:48:45.016Z,8.40
2023-03-04T18:53:46.509Z,10.93
2023-03-04T18:58:50.472Z,11.43
2023-03-04T19:03:54.248Z,8.87
2023-03-04T19:08:55.727Z,8.73
2023-03-04T19:13:57.338Z,10.80
2023-03-04T19:18:58.706Z,10.65
2023-03-04T19:24:00.095Z,14.38
2023-03-04T19:29:01.812Z,12.18
2023-03-04T19:34:04.850Z,10.65
2023-03-04T19:39:08.113Z,10.98
2023-03-04T19:44:09.469Z,9.63
2023-03-04T19:49:11.352Z,11.93
2023-03-04T19:54:12.695Z,10.27
2023-03-04T19:59:14.163Z,11.65
2023-03-04T20:04:18.410Z,12.25
2023-03-04T20:09:19.912Z,13.07
2023-03-04T20:14:21.322Z,12.05
2023-03-04T20:19:22.694Z,10.25
2023-03-04T20:24:25.164Z,11.52
2023-03-04T20:29:28.521Z,10.48
2023-03-04T20:34:29.835Z,10.10
2023-03-04T20:39:31.279Z,11.23
2023-03-04T20:44:33.140Z,10.50
2023-03-04T20:49:34.754Z,10.20
2023-03-04T20:54:38.461Z,10.45
2023-03-04T20:59:40.984Z,11.82
2023-03-04T21:04:43.850Z,11.07
2023-03-04T21:09:45.385Z,9.75
2023-03-04T21:14:46.983Z,10.18
2023-03-04T21:19:48.299Z,10.10
2023-03-04T21:24:49.746Z,10.63
2023-03-04T21:29:52.522Z,10.00
2023-03-04T21:34:54.889Z,12.63
2023-03-04T21:39:56.324Z,10.65
2023-03-04T21:44:57.759Z,10.90
2023-03-04T21:49:59.046Z,9.95
2023-03-04T21:55:00.566Z,12.27
2023-03-04T22:00:02.456Z,10.07
2023-03-04T22:05:05.009Z,10.77
2023-03-04T22:10:06.999Z,10.07
2023-03-04T22:15:10.172Z,11.60
2023-03-04T22:20:12.431Z,9.38
2023-03-04T22:25:13.846Z,9.32
2023-03-04T22:30:17.314Z,9.13
2023-03-04T22:35:19.303Z,9.68
2023-03-04T22:40:20.842Z,11.13
2023-03-04T22:45:22.250Z,9.82
2023-03-04T22:50:23.663Z,11.25
2023-03-04T22:55:25.003Z,11.95
2023-03-04T23:00:28.477Z,10.65
2023-03-04T23:05:29.864Z,10.32
2023-03-04T23:10:31.228Z,9.88
2023-03-04T23:15:32.521Z,9.57
2023-03-04T23:20:33.907Z,10.98
2023-03-04T23:25:35.926Z,11.55
2023-03-04T23:30:37.793Z,10.32
2023-03-04T23:35:40.145Z,11.25
2023-03-04T23:40:41.512Z,10.65
2023-03-04T23:45:43.583Z,10.13
2023-03-04T23:50:51.476Z,9.18
2023-03-04T23:55:52.921Z,9.00
